Skomer, United Kingdom
Current Conditions -  °F | °C
As of 6:50 AM on Friday 24 Oct 2014 (Local Time) from EGOP Reporting Station
Broken Clouds Broken Clouds  
Wind Chill: 57°   Ceiling: 6000
Heat Index: 57°   Visibility: 5mi
Dew Point: 57°   Wind: 16mph
Humidity: 100%   Direction: 260°W
Pressure: 29.91"   Gusts: NA
Location:  51.74°N, 5.29°W
Report Text: EGOP 240550Z AUTO 26014KT 8000 // SCT012/// BKN060/// 14/14 Q1013
Loading
Personal Weather Stations






























Interactive Weather Map
Tropical Storm Tracking
New forecast layout! Learn more

10-Day Weather Forecast

Advertisements
Track Severe Weather on mobile